Nearby METAR Reports

 

KPAE - Everett, Washington, USA
Distance from station: NW 15mi, 25km
Updated: 01/16/2018 1:11am
Light rain, Overcast
Light rain, Overcast
 Wind from ESE
Wind: ESE 13 mph , 20 km/h
Temperature: 48°F , 9°C
Wind Chill: 43°F , 6°C
Dew Point: 48°F , 9°C
Humidity: 100%
Barometer: 30.02 inHg , 1016.6 hPa
Summary: Light rain
Clouds: Overcast
Visibility: 10 miles , 16 km
Cloud details: Few Clouds 1900 ft
Partly cloudy 2500 ft
Overcast 6000 ft
2018/01/16 09:11 KPAE 160911Z AUTO 12011KT 10SM -RA FEW019 SCT025 OVC060 09/09 A3002 RMK AO2 P0000 T00940089
KBFI - Seattle/Boeing, Washington, USA
Distance from station: SW 20mi, 31km
Updated: 01/16/2018 12:53am
Light rain, Overcast
Light rain, Overcast
 Wind from ESE
Wind: ESE 6 mph , 9 km/h
Temperature: 50°F , 10°C
Wind Chill: 48°F , 9°C
Dew Point: 48°F , 9°C
Humidity: 94%
Barometer: 30.03 inHg , 1016.9 hPa
Summary: Light rain
Clouds: Overcast
Visibility: 10 miles , 16 km
Cloud details: Few Clouds 4800 ft
Overcast 6000 ft
2018/01/16 08:53 KBFI 160853Z 12005KT 10SM -RA FEW048 OVC060 10/09 A3003 RMK AO2 RAB0759 SLP170 P0004 60007 T01000089 51029
KSEA - Seattle/Metro, Washington, USA
Distance from station: SSW 25mi, 41km
Updated: 01/16/2018 12:53am
Light rain, Overcast
Light rain, Overcast
 Wind from SSW
Wind: SSW 5 mph , 7 km/h
Temperature: 50°F , 10°C
Wind Chill: 48°F , 9°C
Dew Point: 46°F , 8°C
Humidity: 88%
Barometer: 30.03 inHg , 1016.9 hPa
Summary: Light rain
Clouds: Overcast
Visibility: 10 miles , 16 km
Cloud details: Few Clouds 4500 ft
Overcast 5500 ft
2018/01/16 08:53 KSEA 160853Z 21004KT 10SM -RA FEW045 OVC055 10/08 A3003 RMK AO2 SLP175 P0004 60006 T01000083 51027
 
KAWO - Arlington Muni, Washington, USA
Distance from station: NNW 28mi, 46km
Updated: 01/16/2018 12:56am
Light rain, Overcast
Light rain, Overcast
 Wind from S
Wind: S 7 mph , 11 km/h
Temperature: 48°F , 9°C
Wind Chill: 45°F , 7°C
Dew Point: 46°F , 8°C
Humidity: 94%
Barometer: 30.03 inHg , 1016.9 hPa
Summary: Light rain
Clouds: Overcast
Visibility: 10 miles , 16 km
Cloud details: Overcast 4200 ft
2018/01/16 08:56 KAWO 160856Z AUTO 17006KT 10SM -RA OVC042 09/08 A3003 RMK AO2 SLP173 P0001 60006 T00940078 51030
KPWT - Bremerton Ntnl, Washington, USA
Distance from station: WSW 38mi, 61km
Updated: 01/16/2018 12:56am
Light rain, Overcast
Light rain, Overcast
 Wind from S
Wind: S 3 mph , 6 km/h
Temperature: 48°F , 9°C
Dew Point: 46°F , 8°C
Humidity: 94%
Barometer: 30.01 inHg , 1016.3 hPa
Summary: Light rain
Clouds: Overcast
Visibility: 10 miles , 16 km
Cloud details: Few Clouds 2700 ft
Mostly cloudy 5500 ft
Overcast 7000 ft
2018/01/16 08:56 KPWT 160856Z AUTO 18003KT 10SM -RA FEW027 BKN055 OVC070 09/08 A3001 RMK AO2 SLP180 P0002 60012 T00890083 50015
KTIW - Tacoma, Washington, USA
Distance from station: SW 43mi, 69km
Updated: 01/16/2018 12:53am
Light rain, Overcast
Light rain, Overcast
 Wind from SE
Wind: SE 5 mph , 7 km/h
Temperature: 48°F , 9°C
Wind Chill: 46°F , 8°C
Dew Point: 46°F , 8°C
Humidity: 94%
Barometer: 30.02 inHg , 1016.6 hPa
Summary: Light rain
Clouds: Overcast
Visibility: 10 miles , 16 km
Cloud details: Overcast 6000 ft
2018/01/16 08:53 KTIW 160853Z AUTO 13004KT 10SM -RA OVC060 09/08 A3002 RMK AO2 SLP167 P0003 60005 T00890078 51022 $
 
KPLU - Puyallup/Thun, Washington, USA
Distance from station: SSW 47mi, 76km
Updated: 01/16/2018 1:15am
Light drizzle, Overcast
Light drizzle, Overcast
 Wind from SSE
Wind: SSE 3 mph , 6 km/h
Temperature: 48°F , 9°C
Dew Point: 48°F , 9°C
Humidity: 100%
Barometer: 30.04 inHg , 1017.3 hPa
Summary: Light Drizzle
Clouds: Overcast
Visibility: 3 miles , 5 km
Cloud details: Mostly cloudy 3000 ft
Overcast 3700 ft
2018/01/16 09:15 KPLU 160915Z AUTO 15003KT 3SM -DZ BKN030 OVC037 09/09 A3004 RMK AO2
KSMP - Stampede Pass, Washington, USA
Distance from station: SE 47mi, 76km
Updated: 01/16/2018 1:08am
Fog, Overcast
Fog, Overcast
 Wind from N
Wind: N 3 mph , 6 km/h
Temperature: 34°F , 1°C
Dew Point: 34°F , 1°C
Humidity: 100%
Barometer: 30.01 inHg , 1016.3 hPa
Summary: Fog
Clouds: Overcast
Visibility: 1/4 mile , 0.4 km
Cloud details: Few Clouds 300 ft
Overcast 3800 ft
2018/01/16 09:08 KSMP 160908Z AUTO 01003KT 1/4SM FG FEW003 OVC038 01/01 A3001 RMK AO2 T00110006 FZRANO $
KNUW - Whidbey Is. Nas, Washington, USA
Distance from station: NW 49mi, 79km
Updated: 01/16/2018 12:56am
Mostly cloudy
Mostly cloudy
 Wind from SE
Wind: SE 28 mph , 44 km/h, Gust: 40 mph , 65 km/h
Temperature: 55°F , 13°C
Dew Point: 46°F , 8°C
Humidity: 72%
Barometer: 29.97 inHg , 1014.9 hPa
Clouds: Mostly cloudy
Visibility: 10 miles , 16 km
Cloud details: Partly cloudy 5000 ft
Mostly cloudy 8500 ft
Mostly cloudy 10000 ft
2018/01/16 08:56 KNUW 160856Z 13024G35KT 10SM SCT050 BKN085 BKN100 13/08 A2997 RMK PK WND 14035/0856 SLP147 60000 T01330078 50008
 
KBVS - Burlington/Mt V, Washington, USA
Distance from station: NNW 51mi, 83km
Updated: 01/16/2018 1:15am
Overcast
Overcast
 Wind from ESE
Wind: ESE 16 mph , 26 km/h
Temperature: 52°F , 11°C
Dew Point: 46°F , 8°C
Humidity: 82%
Barometer: 29.98 inHg , 1015.2 hPa
Clouds: Overcast
Visibility: 10 miles , 16 km
Cloud details: Few Clouds 3700 ft
Mostly cloudy 6500 ft
Overcast 7500 ft
2018/01/16 09:15 KBVS 160915Z AUTO 12014KT 10SM FEW037 BKN065 OVC075 11/08 A2998 RMK A01
KSHN - Shelton, Washington, USA
Distance from station: SW 63mi, 101km
Updated: 01/16/2018 1:20am
Light rain, Mist, Overcast
Light rain, Mist, Overcast
 Wind from W
Wind: W 3 mph , 6 km/h
Temperature: 48°F , 9°C
Dew Point: 46°F , 8°C
Humidity: 94%
Barometer: 30.00 inHg , 1015.9 hPa
Summary: Light rain, Mist
Clouds: Overcast
Visibility: 4 miles , 6 km
Cloud details: Mostly cloudy 3000 ft
Overcast 3600 ft
2018/01/16 09:20 KSHN 160920Z AUTO 26003KT 4SM -RA BR BKN030 OVC036 09/08 A3000 RMK AO2 RAB16 P0000 T00890083 $
KOLM - Olympia, Washington, USA
Distance from station: SW 68mi, 110km
Updated: 01/16/2018 12:54am
Overcast
Overcast
 Wind from calm
Wind: Calm
Temperature: 46°F , 8°C
Dew Point: 46°F , 8°C
Humidity: 100%
Barometer: 30.02 inHg , 1016.6 hPa
Clouds: Overcast
Visibility: 10 miles , 16 km
Cloud details: Few Clouds 4000 ft
Mostly cloudy 8000 ft
Overcast 10000 ft
2018/01/16 08:54 KOLM 160854Z AUTO 00000KT 10SM FEW040 BKN080 OVC100 08/08 A3002 RMK AO2 RAE46 SLP168 P0000 60000 T00780078 51021
 
KCLM - Port Angeles, Washington, USA
Distance from station: WNW 72mi, 115km
Updated: 01/16/2018 12:53am
Mostly cloudy
Mostly cloudy
 Wind from WSW
Wind: WSW 3 mph , 6 km/h
Temperature: 45°F , 7°C
Dew Point: 43°F , 6°C
Humidity: 93%
Barometer: 29.91 inHg , 1012.9 hPa
Clouds: Mostly cloudy
Visibility: 10 miles , 16 km
Cloud details: Mostly cloudy 7000 ft
2018/01/16 08:53 KCLM 160853Z AUTO 24003KT 10SM BKN070 07/06 A2991 RMK AO2 SLP130 T00720056 51020
CWYJ - Victoria Univ, British Columbia, Canada
Distance from station: NW 75mi, 121km
Updated: 01/16/2018 1:00am

 Wind from SSE
Wind: SSE 3 mph , 6 km/h
Temperature: 50°F , 10°C
Dew Point: 46°F , 8°C
Humidity: 88%
2018/01/16 09:00 CWYJ 160900Z AUTO 15003KT 10/08 RMK AO1 SLP129 T00970077 53015
KBLI - Bellingham, Washington, USA
Distance from station: NNW 75mi, 121km
Updated: 01/16/2018 12:53am
Overcast
Overcast
 Wind from N
Wind: N 5 mph , 7 km/h
Temperature: 46°F , 8°C
Wind Chill: 44°F , 7°C
Dew Point: 39°F , 4°C
Humidity: 76%
Barometer: 29.94 inHg , 1013.9 hPa
Clouds: Overcast
Visibility: 10 miles , 16 km
Cloud details: Overcast 9500 ft
2018/01/16 08:53 KBLI 160853Z AUTO 35004KT 10SM OVC095 08/04 A2994 RMK AO2 SLP148 60000 T00780044 53010